Time,TemperatureF,DewpointF,PressureIn,WindDirection,WindDirectionDegrees,WindSpeedMPH,WindSpeedGustMPH,Humidity,HourlyPrecipIn,Conditions,Clouds,dailyrainin,SoftwareType,DateUTC
2013-01-25 00:05:00,51.3,41.5,30.14,ESE,112,0.0,0.0,69,0.00,,,0.00,Wunderground v.1.15,2013-01-25 07:05:00,
2013-01-25 00:10:00,51.4,41.6,30.14,ESE,121,0.0,0.0,69,0.00,,,0.00,Wunderground v.1.15,2013-01-25 07:10:00,
2013-01-25 00:16:00,51.2,41.4,30.14,East,96,0.0,0.0,69,0.00,,,0.00,Wunderground v.1.15,2013-01-25 07:16:00,
2013-01-25 00:21:00,50.9,41.1,30.13,East,89,0.0,0.0,69,0.00,,,0.00,Wunderground v.1.15,2013-01-25 07:21:00,
2013-01-25 00:27:00,50.8,41.0,30.13,East,89,0.0,0.0,69,0.00,,,0.00,Wunderground v.1.15,2013-01-25 07:27:00,
2013-01-25 00:32:00,50.7,41.3,30.13,East,89,0.0,0.0,70,0.00,,,0.00,Wunderground v.1.15,2013-01-25 07:32:00,
2013-01-25 00:38:00,50.9,41.1,30.12,East,95,0.0,0.0,69,0.00,,,0.00,Wunderground v.1.15,2013-01-25 07:38:00,
2013-01-25 00:43:00,51.1,40.9,30.12,East,94,0.0,0.0,68,0.00,,,0.00,Wunderground v.1.15,2013-01-25 07:43:00,
2013-01-25 00:49:00,51.1,40.9,30.12,East,94,0.0,0.0,68,0.00,,,0.00,Wunderground v.1.15,2013-01-25 07:49:00,
2013-01-25 00:54:00,51.1,40.9,30.12,East,94,0.0,0.0,68,0.00,,,0.00,Wunderground v.1.15,2013-01-25 07:54:00,
2013-01-25 01:00:00,51.0,41.2,30.11,East,94,0.0,0.0,69,0.00,,,0.00,Wunderground v.1.15,2013-01-25 08:00:00,
2013-01-25 01:06:00,50.8,41.0,30.11,East,93,0.0,0.0,69,0.00,,,0.00,Wunderground v.1.15,2013-01-25 08:06:00,
2013-01-25 01:11:00,50.6,40.8,30.11,East,83,0.0,0.0,69,0.00,,,0.00,Wunderground v.1.15,2013-01-25 08:11:00,
2013-01-25 01:17:00,50.4,40.6,30.11,NW,307,0.0,0.0,69,0.00,,,0.00,Wunderground v.1.15,2013-01-25 08:17:00,
2013-01-25 01:22:00,49.8,40.0,30.11,NW,307,0.0,0.0,69,0.00,,,0.00,Wunderground v.1.15,2013-01-25 08:22:00,
2013-01-25 01:28:00,49.8,40.4,30.11,NW,307,0.0,0.0,70,0.00,,,0.00,Wunderground v.1.15,2013-01-25 08:28:00,
2013-01-25 01:34:00,49.9,40.1,30.12,NW,307,0.0,0.0,69,0.00,,,0.00,Wunderground v.1.15,2013-01-25 08:34:00,
2013-01-25 01:39:00,50.0,40.2,30.12,WNW,287,0.0,0.0,69,0.00,,,0.00,Wunderground v.1.15,2013-01-25 08:39:00,
2013-01-25 01:45:00,49.6,39.8,30.12,West,280,0.0,2.0,69,0.00,,,0.00,Wunderground v.1.15,2013-01-25 08:45:00,
2013-01-25 01:51:00,49.3,39.9,30.13,West,279,0.0,1.0,70,0.00,,,0.00,Wunderground v.1.15,2013-01-25 08:51:00,
2013-01-25 01:56:00,49.1,40.1,30.12,West,279,0.0,1.0,71,0.00,,,0.00,Wunderground v.1.15,2013-01-25 08:56:00,
2013-01-25 02:01:00,49.1,40.1,30.11,NE,49,0.0,0.0,71,0.00,,,0.00,Wunderground v.1.15,2013-01-25 09:01:00,
2013-01-25 02:06:00,48.9,39.9,30.11,NE,50,0.0,0.0,71,0.00,,,0.00,Wunderground v.1.15,2013-01-25 09:06:00,
2013-01-25 02:11:00,48.7,40.1,30.11,NE,49,0.0,0.0,72,0.00,,,0.00,Wunderground v.1.15,2013-01-25 09:11:00,
2013-01-25 02:16:00,48.1,39.5,30.11,ENE,63,0.0,0.0,72,0.00,,,0.00,Wunderground v.1.15,2013-01-25 09:16:00,
2013-01-25 02:21:00,47.5,39.6,30.11,ENE,78,3.0,3.0,74,0.00,,,0.00,Wunderground v.1.15,2013-01-25 09:21:00,
2013-01-25 02:26:00,47.3,39.4,30.10,ENE,68,2.0,3.0,74,0.00,,,0.00,Wunderground v.1.15,2013-01-25 09:26:00,
2013-01-25 02:31:00,47.2,39.3,30.11,ENE,71,0.0,2.0,74,0.00,,,0.00,Wunderground v.1.15,2013-01-25 09:31:00,
2013-01-25 02:36:00,47.3,39.4,30.11,ENE,70,0.0,2.0,74,0.00,,,0.00,Wunderground v.1.15,2013-01-25 09:36:00,
2013-01-25 02:41:00,47.5,39.6,30.11,East,94,1.0,2.0,74,0.00,,,0.00,Wunderground v.1.15,2013-01-25 09:41:00,
2013-01-25 02:46:00,47.7,39.5,30.10,ENE,78,0.0,2.0,73,0.00,,,0.00,Wunderground v.1.15,2013-01-25 09:46:00,
2013-01-25 02:51:00,47.6,39.7,30.10,ENE,72,0.0,0.0,74,0.00,,,0.00,Wunderground v.1.15,2013-01-25 09:51:00,
2013-01-25 02:56:00,48.3,40.0,30.11,SE,131,0.0,2.0,73,0.00,,,0.00,Wunderground v.1.15,2013-01-25 09:56:00,
2013-01-25 03:01:00,48.5,39.9,30.11,ESE,102,0.0,0.0,72,0.00,,,0.00,Wunderground v.1.15,2013-01-25 10:01:00,
2013-01-25 03:06:00,49.2,40.2,30.11,East,94,0.0,2.0,71,0.00,,,0.00,Wunderground v.1.15,2013-01-25 10:06:00,
2013-01-25 03:11:00,48.9,39.9,30.10,East,89,0.0,0.0,71,0.00,,,0.00,Wunderground v.1.15,2013-01-25 10:11:00,
2013-01-25 03:16:00,48.8,39.8,30.09,ENE,68,0.0,0.0,71,0.00,,,0.00,Wunderground v.1.15,2013-01-25 10:16:00,
2013-01-25 03:21:00,48.5,39.9,30.10,ENE,68,0.0,0.0,72,0.00,,,0.00,Wunderground v.1.15,2013-01-25 10:21:00,
2013-01-25 03:26:00,48.6,40.0,30.10,ENE,68,0.0,0.0,72,0.00,,,0.00,Wunderground v.1.15,2013-01-25 10:26:00,
2013-01-25 03:31:00,48.7,39.7,30.09,ENE,64,2.0,2.0,71,0.00,,,0.00,Wunderground v.1.15,2013-01-25 10:31:00,
2013-01-25 03:36:00,48.9,39.9,30.09,ENE,69,3.0,3.0,71,0.00,,,0.00,Wunderground v.1.15,2013-01-25 10:36:00,
2013-01-25 03:41:00,49.1,39.7,30.09,ENE,77,1.0,2.0,70,0.00,,,0.00,Wunderground v.1.15,2013-01-25 10:41:00,
2013-01-25 03:46:00,48.7,39.4,30.09,ENE,78,0.0,2.0,70,0.00,,,0.00,Wunderground v.1.15,2013-01-25 10:46:00,
2013-01-25 03:51:00,48.1,39.1,30.08,ENE,60,2.0,2.0,71,0.00,,,0.00,Wunderground v.1.15,2013-01-25 10:51:00,
2013-01-25 03:56:00,47.6,39.0,30.09,ENE,70,2.0,3.0,72,0.00,,,0.00,Wunderground v.1.15,2013-01-25 10:56:00,
2013-01-25 04:01:00,47.2,38.6,30.09,ENE,70,0.0,1.0,72,0.00,,,0.00,Wunderground v.1.15,2013-01-25 11:01:00,
2013-01-25 04:06:00,47.2,38.6,30.09,ENE,70,0.0,1.0,72,0.00,,,0.00,Wunderground v.1.15,2013-01-25 11:06:00,
2013-01-25 04:11:00,47.1,38.9,30.09,ENE,72,0.0,0.0,73,0.00,,,0.00,Wunderground v.1.15,2013-01-25 11:11:00,
2013-01-25 04:16:00,47.2,38.6,30.10,ENE,72,0.0,0.0,72,0.00,,,0.00,Wunderground v.1.15,2013-01-25 11:16:00,
2013-01-25 04:21:00,46.9,38.3,30.10,ENE,72,0.0,0.0,72,0.00,,,0.00,Wunderground v.1.15,2013-01-25 11:21:00,
2013-01-25 04:26:00,46.0,37.8,30.10,ENE,70,0.0,0.0,73,0.00,,,0.00,Wunderground v.1.15,2013-01-25 11:26:00,
2013-01-25 04:31:00,44.8,37.4,30.10,ENE,71,0.0,0.0,75,0.00,,,0.00,Wunderground v.1.15,2013-01-25 11:31:00,
2013-01-25 04:36:00,44.3,37.5,30.10,ENE,72,0.0,0.0,77,0.00,,,0.00,Wunderground v.1.15,2013-01-25 11:36:00,
2013-01-25 04:41:00,44.1,37.3,30.10,ENE,70,0.0,0.0,77,0.00,,,0.00,Wunderground v.1.15,2013-01-25 11:41:00,
2013-01-25 04:46:00,44.1,37.7,30.10,ENE,70,0.0,0.0,78,0.00,,,0.00,Wunderground v.1.15,2013-01-25 11:46:00,
2013-01-25 04:51:00,44.5,38.1,30.10,East,86,1.0,2.0,78,0.00,,,0.00,Wunderground v.1.15,2013-01-25 11:51:00,
2013-01-25 04:56:00,44.8,38.0,30.10,ENE,63,3.0,4.0,77,0.00,,,0.00,Wunderground v.1.15,2013-01-25 11:56:00,
2013-01-25 05:01:00,45.1,38.0,30.09,NE,56,4.0,4.0,76,0.00,,,0.00,Wunderground v.1.15,2013-01-25 12:01:00,
2013-01-25 05:06:00,45.5,38.0,30.09,ENE,61,3.0,4.0,75,0.00,,,0.00,Wunderground v.1.15,2013-01-25 12:06:00,
2013-01-25 05:11:00,45.8,38.3,30.09,ENE,65,2.0,3.0,75,0.00,,,0.00,Wunderground v.1.15,2013-01-25 12:11:00,
2013-01-25 05:16:00,46.0,38.2,30.09,ENE,62,2.0,3.0,74,0.00,,,0.00,Wunderground v.1.15,2013-01-25 12:16:00,
2013-01-25 05:21:00,46.0,38.2,30.09,NE,56,2.0,3.0,74,0.00,,,0.00,Wunderground v.1.15,2013-01-25 12:21:00,
2013-01-25 05:26:00,46.0,38.2,30.09,ENE,60,2.0,3.0,74,0.00,,,0.00,Wunderground v.1.15,2013-01-25 12:26:00,
2013-01-25 05:31:00,46.1,38.3,30.09,ENE,68,0.0,2.0,74,0.00,,,0.00,Wunderground v.1.15,2013-01-25 12:31:00,
2013-01-25 05:36:00,46.3,38.8,30.10,ENE,76,0.0,2.0,75,0.00,,,0.00,Wunderground v.1.15,2013-01-25 12:36:00,
2013-01-25 05:41:00,46.5,38.7,30.09,East,79,0.0,0.0,74,0.00,,,0.00,Wunderground v.1.15,2013-01-25 12:41:00,
2013-01-25 05:46:00,46.5,38.7,30.10,East,79,0.0,0.0,74,0.00,,,0.00,Wunderground v.1.15,2013-01-25 12:46:00,
2013-01-25 05:51:00,46.3,38.5,30.10,ENE,75,0.0,0.0,74,0.00,,,0.00,Wunderground v.1.15,2013-01-25 12:51:00,
2013-01-25 05:56:00,46.1,38.6,30.10,ENE,72,0.0,0.0,75,0.00,,,0.00,Wunderground v.1.15,2013-01-25 12:56:00,
2013-01-25 06:01:00,45.9,38.4,30.10,ENE,72,0.0,0.0,75,0.00,,,0.00,Wunderground v.1.15,2013-01-25 13:01:00,
2013-01-25 06:06:00,45.8,38.3,30.10,ENE,72,0.0,0.0,75,0.00,,,0.00,Wunderground v.1.15,2013-01-25 13:06:00,
2013-01-25 06:11:00,45.7,38.2,30.10,ENE,72,0.0,0.0,75,0.00,,,0.00,Wunderground v.1.15,2013-01-25 13:11:00,
2013-01-25 06:16:00,45.5,38.0,30.10,ENE,72,0.0,0.0,75,0.00,,,0.00,Wunderground v.1.15,2013-01-25 13:16:00,
2013-01-25 06:21:00,45.2,37.7,30.10,ENE,68,0.0,0.0,75,0.00,,,0.00,Wunderground v.1.15,2013-01-25 13:21:00,
2013-01-25 06:26:00,44.6,37.5,30.10,ENE,65,0.0,0.0,76,0.00,,,0.00,Wunderground v.1.15,2013-01-25 13:26:00,
2013-01-25 06:31:00,44.6,37.8,30.10,ENE,65,0.0,0.0,77,0.00,,,0.00,Wunderground v.1.15,2013-01-25 13:31:00,
2013-01-25 06:36:00,44.7,37.9,30.11,ENE,65,0.0,0.0,77,0.00,,,0.00,Wunderground v.1.15,2013-01-25 13:36:00,
2013-01-25 06:41:00,44.6,37.8,30.11,ENE,65,0.0,0.0,77,0.00,,,0.00,Wunderground v.1.15,2013-01-25 13:41:00,
2013-01-25 06:46:00,44.5,37.7,30.11,ENE,65,0.0,0.0,77,0.00,,,0.00,Wunderground v.1.15,2013-01-25 13:46:00,
2013-01-25 06:51:00,44.3,37.5,30.11,ENE,65,0.0,0.0,77,0.00,,,0.00,Wunderground v.1.15,2013-01-25 13:51:00,
2013-01-25 06:56:00,44.3,37.5,30.11,ENE,65,0.0,0.0,77,0.00,,,0.00,Wunderground v.1.15,2013-01-25 13:56:00,
2013-01-25 07:01:00,44.3,37.5,30.12,ENE,65,0.0,0.0,77,0.00,,,0.00,Wunderground v.1.15,2013-01-25 14:01:00,
2013-01-25 07:06:00,44.2,37.4,30.12,ENE,65,0.0,0.0,77,0.00,,,0.00,Wunderground v.1.15,2013-01-25 14:06:00,
2013-01-25 07:11:00,44.0,37.3,30.12,ENE,65,0.0,0.0,77,0.00,,,0.00,Wunderground v.1.15,2013-01-25 14:11:00,
2013-01-25 07:16:00,43.6,37.2,30.12,ENE,65,0.0,0.0,78,0.00,,,0.00,Wunderground v.1.15,2013-01-25 14:16:00,
2013-01-25 07:21:00,43.2,36.8,30.13,ENE,65,0.0,0.0,78,0.00,,,0.00,Wunderground v.1.15,2013-01-25 14:21:00,
2013-01-25 07:26:00,42.9,36.8,30.13,ENE,65,0.0,0.0,79,0.00,,,0.00,Wunderground v.1.15,2013-01-25 14:26:00,
2013-01-25 07:31:00,43.1,37.0,30.12,East,84,0.0,0.0,79,0.00,,,0.00,Wunderground v.1.15,2013-01-25 14:31:00,
2013-01-25 07:36:00,44.4,37.6,30.13,East,89,0.0,0.0,77,0.00,,,0.00,Wunderground v.1.15,2013-01-25 14:36:00,
2013-01-25 07:41:00,45.0,37.6,30.13,ENE,77,0.0,0.0,75,0.00,,,0.00,Wunderground v.1.15,2013-01-25 14:41:00,
2013-01-25 07:46:00,45.0,37.9,30.13,ENE,77,0.0,0.0,76,0.00,,,0.00,Wunderground v.1.15,2013-01-25 14:46:00,
2013-01-25 07:51:00,45.5,38.4,30.13,East,90,0.0,0.0,76,0.00,,,0.00,Wunderground v.1.15,2013-01-25 14:51:00,
2013-01-25 07:56:00,46.3,38.8,30.12,East,80,0.0,0.0,75,0.00,,,0.00,Wunderground v.1.15,2013-01-25 14:56:00,
2013-01-25 08:01:00,47.7,39.8,30.12,ENE,60,0.0,0.0,74,0.00,,,0.00,Wunderground v.1.15,2013-01-25 15:01:00,
2013-01-25 08:06:00,49.3,40.3,30.11,ENE,73,0.0,0.0,71,0.00,,,0.00,Wunderground v.1.15,2013-01-25 15:06:00,
2013-01-25 08:11:00,50.9,40.7,30.12,East,85,0.0,0.0,68,0.00,,,0.00,Wunderground v.1.15,2013-01-25 15:11:00,
2013-01-25 08:16:00,52.4,40.6,30.12,East,84,0.0,0.0,64,0.00,,,0.00,Wunderground v.1.15,2013-01-25 15:16:00,
2013-01-25 08:21:00,52.8,40.5,30.12,East,83,0.0,0.0,63,0.00,,,0.00,Wunderground v.1.15,2013-01-25 15:21:00,
2013-01-25 08:26:00,53.5,40.8,30.12,East,84,0.0,0.0,62,0.00,,,0.00,Wunderground v.1.15,2013-01-25 15:26:00,
2013-01-25 08:31:00,54.1,40.9,30.11,East,83,0.0,0.0,61,0.00,,,0.00,Wunderground v.1.15,2013-01-25 15:31:00,
2013-01-25 08:36:00,54.9,41.3,30.11,ESE,108,0.0,0.0,60,0.00,,,0.00,Wunderground v.1.15,2013-01-25 15:36:00,
2013-01-25 08:41:00,56.1,41.5,30.11,ESE,108,0.0,0.0,58,0.00,,,0.00,Wunderground v.1.15,2013-01-25 15:41:00,
2013-01-25 08:46:00,58.2,41.6,30.11,ESE,113,0.0,0.0,54,0.00,,,0.00,Wunderground v.1.15,2013-01-25 15:46:00,
2013-01-25 08:51:00,59.6,40.9,30.11,SE,133,0.0,0.0,50,0.00,,,0.00,Wunderground v.1.15,2013-01-25 15:51:00,
2013-01-25 08:56:00,59.9,40.7,30.11,SSE,153,0.0,0.0,49,0.00,,,0.00,Wunderground v.1.15,2013-01-25 15:56:00,
2013-01-25 09:01:00,60.2,40.4,30.12,SSW,198,2.0,5.0,48,0.00,,,0.00,Wunderground v.1.15,2013-01-25 16:01:00,
2013-01-25 09:06:00,59.7,41.0,30.11,SSW,208,0.0,5.0,50,0.00,,,0.00,Wunderground v.1.15,2013-01-25 16:06:00,
2013-01-25 09:11:00,59.8,41.1,30.11,SSW,204,0.0,1.0,50,0.00,,,0.00,Wunderground v.1.15,2013-01-25 16:11:00,
2013-01-25 09:16:00,59.7,41.5,30.12,SW,217,2.0,3.0,51,0.00,,,0.00,Wunderground v.1.15,2013-01-25 16:16:00,
2013-01-25 09:21:00,59.1,41.5,30.12,SW,219,0.0,1.0,52,0.00,,,0.00,Wunderground v.1.15,2013-01-25 16:21:00,
2013-01-25 09:26:00,58.8,41.7,30.12,SSW,192,0.0,1.0,53,0.00,,,0.00,Wunderground v.1.15,2013-01-25 16:26:00,
2013-01-25 09:31:00,58.7,42.1,30.12,SSW,205,2.0,3.0,54,0.00,,,0.00,Wunderground v.1.15,2013-01-25 16:31:00,
2013-01-25 09:36:00,58.7,42.6,30.12,SW,215,2.0,3.0,55,0.00,,,0.00,Wunderground v.1.15,2013-01-25 16:36:00,
2013-01-25 09:41:00,58.7,42.6,30.13,SSE,160,0.0,1.0,55,0.00,,,0.00,Wunderground v.1.15,2013-01-25 16:41:00,
2013-01-25 09:46:00,58.8,42.7,30.13,SSW,206,0.0,1.0,55,0.00,,,0.00,Wunderground v.1.15,2013-01-25 16:46:00,
2013-01-25 09:51:00,58.8,42.7,30.13,SW,221,4.0,4.0,55,0.00,,,0.00,Wunderground v.1.15,2013-01-25 16:51:00,
2013-01-25 09:56:00,58.6,42.5,30.13,SSW,203,3.0,5.0,55,0.00,,,0.00,Wunderground v.1.15,2013-01-25 16:56:00,
2013-01-25 10:01:00,58.8,42.7,30.13,West,264,4.0,4.0,55,0.00,,,0.00,Wunderground v.1.15,2013-01-25 17:01:00,
2013-01-25 10:06:00,59.5,42.8,30.13,SW,223,3.0,6.0,54,0.00,,,0.00,Wunderground v.1.15,2013-01-25 17:06:00,
2013-01-25 10:11:00,60.7,43.0,30.13,South,180,4.0,7.0,52,0.00,,,0.00,Wunderground v.1.15,2013-01-25 17:11:00,
2013-01-25 10:16:00,61.8,43.0,30.13,SE,146,3.0,7.0,50,0.00,,,0.00,Wunderground v.1.15,2013-01-25 17:16:00,
2013-01-25 10:21:00,62.6,42.6,30.13,SSE,153,2.0,6.0,48,0.00,,,0.00,Wunderground v.1.15,2013-01-25 17:21:00,
2013-01-25 10:26:00,63.2,42.6,30.13,South,190,5.0,7.0,47,0.00,,,0.00,Wunderground v.1.15,2013-01-25 17:26:00,
2013-01-25 10:31:00,63.6,40.7,30.13,SSE,157,5.0,8.0,43,0.00,,,0.00,Wunderground v.1.15,2013-01-25 17:31:00,
2013-01-25 10:36:00,63.9,41.0,30.13,SSE,152,6.0,8.0,43,0.00,,,0.00,Wunderground v.1.15,2013-01-25 17:36:00,
2013-01-25 10:41:00,64.1,40.5,30.12,ESE,113,4.0,6.0,42,0.00,,,0.00,Wunderground v.1.15,2013-01-25 17:41:00,
2013-01-25 10:46:00,64.4,40.2,30.12,SE,136,4.0,7.0,41,0.00,,,0.00,Wunderground v.1.15,2013-01-25 17:46:00,
2013-01-25 10:51:00,64.8,39.9,30.12,SE,146,3.0,7.0,40,0.00,,,0.00,Wunderground v.1.15,2013-01-25 17:51:00,
2013-01-25 10:56:00,65.1,40.2,30.11,South,172,3.0,7.0,40,0.00,,,0.00,Wunderground v.1.15,2013-01-25 17:56:00,
2013-01-25 11:01:00,65.4,40.4,30.11,SSE,157,5.0,6.0,40,0.00,,,0.00,Wunderground v.1.15,2013-01-25 18:01:00,
2013-01-25 11:06:00,65.4,39.8,30.11,SE,146,3.0,7.0,39,0.00,,,0.00,Wunderground v.1.15,2013-01-25 18:06:00,
2013-01-25 11:11:00,65.3,39.7,30.11,SSE,158,5.0,7.0,39,0.00,,,0.00,Wunderground v.1.15,2013-01-25 18:11:00,
2013-01-25 11:16:00,65.4,39.8,30.11,SSE,147,6.0,7.0,39,0.00,,,0.00,Wunderground v.1.15,2013-01-25 18:16:00,
2013-01-25 11:21:00,65.9,39.6,30.11,SSE,159,3.0,6.0,38,0.00,,,0.00,Wunderground v.1.15,2013-01-25 18:21:00,
2013-01-25 11:26:00,66.7,39.6,30.11,SSE,150,8.0,9.0,37,0.00,,,0.00,Wunderground v.1.15,2013-01-25 18:26:00,
2013-01-25 11:31:00,66.9,39.8,30.11,SE,134,7.0,10.0,37,0.00,,,0.00,Wunderground v.1.15,2013-01-25 18:31:00,
2013-01-25 11:36:00,67.0,39.9,30.10,South,188,6.0,10.0,37,0.00,,,0.00,Wunderground v.1.15,2013-01-25 18:36:00,
2013-01-25 11:41:00,67.0,39.9,30.10,SE,131,7.0,7.0,37,0.00,,,0.00,Wunderground v.1.15,2013-01-25 18:41:00,
2013-01-25 11:46:00,66.9,40.5,30.10,SSE,147,4.0,8.0,38,0.00,,,0.00,Wunderground v.1.15,2013-01-25 18:46:00,
2013-01-25 11:51:00,66.9,40.5,30.10,SSE,158,7.0,9.0,38,0.00,,,0.00,Wunderground v.1.15,2013-01-25 18:51:00,
2013-01-25 11:56:00,67.3,40.1,30.09,SSE,162,7.0,9.0,37,0.00,,,0.00,Wunderground v.1.15,2013-01-25 18:56:00,
2013-01-25 12:01:00,67.2,40.0,30.09,SSE,149,6.0,8.0,37,0.00,,,0.00,Wunderground v.1.15,2013-01-25 19:01:00,
2013-01-25 12:06:00,67.0,40.5,30.08,SSE,158,5.0,11.0,38,0.00,,,0.00,Wunderground v.1.15,2013-01-25 19:06:00,
2013-01-25 12:11:00,66.8,40.4,30.08,South,182,5.0,8.0,38,0.00,,,0.00,Wunderground v.1.15,2013-01-25 19:11:00,
2013-01-25 12:16:00,66.8,41.0,30.08,East,90,3.0,9.0,39,0.00,,,0.00,Wunderground v.1.15,2013-01-25 19:16:00,
2013-01-25 12:21:00,67.1,40.6,30.07,ESE,112,2.0,6.0,38,0.00,,,0.00,Wunderground v.1.15,2013-01-25 19:21:00,
2013-01-25 12:26:00,67.4,41.6,30.07,South,183,6.0,8.0,39,0.00,,,0.00,Wunderground v.1.15,2013-01-25 19:26:00,
2013-01-25 12:31:00,67.7,41.2,30.07,ESE,107,4.0,6.0,38,0.00,,,0.00,Wunderground v.1.15,2013-01-25 19:31:00,
2013-01-25 12:36:00,67.7,41.2,30.06,SE,124,4.0,8.0,38,0.00,,,0.00,Wunderground v.1.15,2013-01-25 19:36:00,
2013-01-25 12:41:00,67.5,40.3,30.06,SE,134,0.0,5.0,37,0.00,,,0.00,Wunderground v.1.15,2013-01-25 19:41:00,
2013-01-25 12:46:00,67.7,41.2,30.05,SE,138,4.0,6.0,38,0.00,,,0.00,Wunderground v.1.15,2013-01-25 19:46:00,
2013-01-25 12:51:00,68.0,40.7,30.05,SE,142,3.0,4.0,37,0.00,,,0.00,Wunderground v.1.15,2013-01-25 19:51:00,
2013-01-25 12:57:00,68.1,40.8,30.05,ESE,111,0.0,6.0,37,0.00,,,0.00,Wunderground v.1.15,2013-01-25 19:57:00,
2013-01-25 13:02:00,68.2,40.9,30.05,SE,141,2.0,3.0,37,0.00,,,0.00,Wunderground v.1.15,2013-01-25 20:02:00,
2013-01-25 13:07:00,68.5,40.5,30.04,South,190,4.0,6.0,36,0.00,,,0.00,Wunderground v.1.15,2013-01-25 20:07:00,
2013-01-25 13:12:00,68.7,40.7,30.04,SSE,148,6.0,7.0,36,0.00,,,0.00,Wunderground v.1.15,2013-01-25 20:12:00,
2013-01-25 13:17:00,68.6,40.6,30.03,SE,131,3.0,7.0,36,0.00,,,0.00,Wunderground v.1.15,2013-01-25 20:17:00,
2013-01-25 13:22:00,68.6,40.6,30.03,SW,224,2.0,3.0,36,0.00,,,0.00,Wunderground v.1.15,2013-01-25 20:22:00,
2013-01-25 13:27:00,68.4,41.1,30.03,WSW,239,0.0,4.0,37,0.00,,,0.00,Wunderground v.1.15,2013-01-25 20:27:00,
2013-01-25 13:32:00,68.5,40.5,30.02,West,271,1.0,1.0,36,0.00,,,0.00,Wunderground v.1.15,2013-01-25 20:32:00,
2013-01-25 13:37:00,68.7,41.4,30.02,WSW,255,0.0,3.0,37,0.00,,,0.00,Wunderground v.1.15,2013-01-25 20:37:00,
2013-01-25 13:41:00,69.0,41.6,30.02,SE,142,2.0,7.0,37,0.00,,,0.00,Wunderground v.1.15,2013-01-25 20:41:00,
2013-01-25 13:46:00,68.8,41.5,30.01,SSW,197,3.0,7.0,37,0.00,,,0.00,Wunderground v.1.15,2013-01-25 20:46:00,
2013-01-25 13:51:00,68.9,41.5,30.01,SSW,201,2.0,3.0,37,0.00,,,0.00,Wunderground v.1.15,2013-01-25 20:51:00,
2013-01-25 13:56:00,68.9,41.5,30.01,WSW,257,1.0,3.0,37,0.00,,,0.00,Wunderground v.1.15,2013-01-25 20:56:00,
2013-01-25 14:01:00,68.7,41.4,30.00,SW,236,1.0,2.0,37,0.00,,,0.00,Wunderground v.1.15,2013-01-25 21:01:00,
2013-01-25 14:06:00,68.5,41.2,30.00,South,181,0.0,2.0,37,0.00,,,0.00,Wunderground v.1.15,2013-01-25 21:06:00,
2013-01-25 14:11:00,68.7,41.4,30.00,SSE,158,1.0,4.0,37,0.00,,,0.00,Wunderground v.1.15,2013-01-25 21:11:00,
2013-01-25 14:16:00,68.6,41.3,30.00,NW,316,2.0,4.0,37,0.00,,,0.00,Wunderground v.1.15,2013-01-25 21:16:00,
2013-01-25 14:21:00,68.3,41.0,29.99,North,352,0.0,1.0,37,0.00,,,0.00,Wunderground v.1.15,2013-01-25 21:21:00,
2013-01-25 14:27:00,68.6,41.3,30.00,West,275,0.0,7.0,37,0.00,,,0.00,Wunderground v.1.15,2013-01-25 21:27:00,
2013-01-25 14:32:00,68.7,41.4,29.99,WSW,254,0.0,1.0,37,0.00,,,0.00,Wunderground v.1.15,2013-01-25 21:32:00,
2013-01-25 14:37:00,68.6,41.3,29.99,WSW,241,1.0,8.0,37,0.00,,,0.00,Wunderground v.1.15,2013-01-25 21:37:00,
2013-01-25 14:42:00,68.3,41.0,29.99,WNW,282,0.0,1.0,37,0.00,,,0.00,Wunderground v.1.15,2013-01-25 21:42:00,
2013-01-25 14:47:00,68.2,40.9,29.99,NW,323,1.0,3.0,37,0.00,,,0.00,Wunderground v.1.15,2013-01-25 21:47:00,
2013-01-25 14:52:00,68.1,40.8,29.99,North,4,0.0,1.0,37,0.00,,,0.00,Wunderground v.1.15,2013-01-25 21:52:00,
2013-01-25 14:57:00,67.9,41.3,29.99,North,359,2.0,4.0,38,0.00,,,0.00,Wunderground v.1.15,2013-01-25 21:57:00,
2013-01-25 15:02:00,67.7,41.2,29.98,NE,38,0.0,3.0,38,0.00,,,0.00,Wunderground v.1.15,2013-01-25 22:02:00,
2013-01-25 15:07:00,67.7,41.2,29.98,NE,35,2.0,4.0,38,0.00,,,0.00,Wunderground v.1.15,2013-01-25 22:07:00,
2013-01-25 15:12:00,67.6,41.1,29.98,NE,39,1.0,3.0,38,0.00,,,0.00,Wunderground v.1.15,2013-01-25 22:12:00,
2013-01-25 15:17:00,67.5,41.0,29.98,NNE,32,0.0,3.0,38,0.00,,,0.00,Wunderground v.1.15,2013-01-25 22:17:00,
2013-01-25 15:22:00,67.7,41.2,29.98,NNE,31,0.0,1.0,38,0.00,,,0.00,Wunderground v.1.15,2013-01-25 22:22:00,
2013-01-25 15:27:00,67.8,41.3,29.98,NNE,32,0.0,1.0,38,0.00,,,0.00,Wunderground v.1.15,2013-01-25 22:27:00,
2013-01-25 15:32:00,67.9,41.3,29.98,SSE,166,0.0,0.0,38,0.00,,,0.00,Wunderground v.1.15,2013-01-25 22:32:00,
2013-01-25 15:37:00,68.3,41.7,29.98,SSE,147,0.0,0.0,38,0.00,,,0.00,Wunderground v.1.15,2013-01-25 22:37:00,
2013-01-25 15:42:00,68.1,41.5,29.98,ENE,60,0.0,0.0,38,0.00,,,0.00,Wunderground v.1.15,2013-01-25 22:42:00,
2013-01-25 15:47:00,67.9,41.3,29.98,ENE,72,0.0,0.0,38,0.00,,,0.00,Wunderground v.1.15,2013-01-25 22:47:00,
2013-01-25 15:52:00,67.9,41.3,29.97,SE,134,1.0,4.0,38,0.00,,,0.00,Wunderground v.1.15,2013-01-25 22:52:00,
2013-01-25 15:57:00,68.0,41.4,29.98,SSE,152,0.0,4.0,38,0.00,,,0.00,Wunderground v.1.15,2013-01-25 22:57:00,
2013-01-25 16:02:00,68.1,41.5,29.98,SSE,155,1.0,1.0,38,0.00,,,0.00,Wunderground v.1.15,2013-01-25 23:02:00,
2013-01-25 16:07:00,68.1,41.5,29.98,SSE,160,7.0,7.0,38,0.00,,,0.00,Wunderground v.1.15,2013-01-25 23:07:00,
2013-01-25 16:12:00,67.8,41.3,29.98,SSW,207,5.0,5.0,38,0.00,,,0.00,Wunderground v.1.15,2013-01-25 23:12:00,
2013-01-25 16:17:00,67.6,41.7,29.98,SSW,208,2.0,6.0,39,0.00,,,0.00,Wunderground v.1.15,2013-01-25 23:17:00,
2013-01-25 16:22:00,67.5,42.3,29.97,SSW,203,3.0,4.0,40,0.00,,,0.00,Wunderground v.1.15,2013-01-25 23:22:00,
2013-01-25 16:27:00,67.5,42.3,29.97,South,169,2.0,4.0,40,0.00,,,0.00,Wunderground v.1.15,2013-01-25 23:27:00,
2013-01-25 16:32:00,67.5,43.0,29.97,SE,145,1.0,3.0,41,0.00,,,0.00,Wunderground v.1.15,2013-01-25 23:32:00,
2013-01-25 16:37:00,67.4,42.2,29.97,ESE,120,3.0,5.0,40,0.00,,,0.00,Wunderground v.1.15,2013-01-25 23:37:00,
2013-01-25 16:42:00,67.2,42.0,29.97,SE,136,4.0,5.0,40,0.00,,,0.00,Wunderground v.1.15,2013-01-25 23:42:00,
2013-01-25 16:47:00,67.1,42.0,29.97,SE,136,4.0,6.0,40,0.00,,,0.00,Wunderground v.1.15,2013-01-25 23:47:00,
2013-01-25 16:52:00,66.9,41.8,29.96,SE,124,2.0,5.0,40,0.00,,,0.00,Wunderground v.1.15,2013-01-25 23:52:00,
2013-01-25 16:57:00,66.7,41.6,29.96,ESE,118,3.0,5.0,40,0.00,,,0.00,Wunderground v.1.15,2013-01-25 23:57:00,
2013-01-25 17:02:00,66.5,42.1,29.96,ESE,113,2.0,4.0,41,0.00,,,0.00,Wunderground v.1.15,2013-01-26 00:02:00,
2013-01-25 17:07:00,66.3,41.9,29.96,SE,133,3.0,6.0,41,0.00,,,0.00,Wunderground v.1.15,2013-01-26 00:07:00,
2013-01-25 17:12:00,66.0,41.6,29.96,ESE,111,1.0,4.0,41,0.00,,,0.00,Wunderground v.1.15,2013-01-26 00:12:00,
2013-01-25 17:17:00,65.6,41.9,29.96,SE,131,2.0,4.0,42,0.00,,,0.00,Wunderground v.1.15,2013-01-26 00:17:00,
2013-01-25 17:22:00,65.3,41.6,29.96,SE,127,2.0,4.0,42,0.00,,,0.00,Wunderground v.1.15,2013-01-26 00:22:00,
2013-01-25 17:27:00,65.0,41.9,29.96,ESE,121,1.0,4.0,43,0.00,,,0.00,Wunderground v.1.15,2013-01-26 00:27:00,
2013-01-25 17:32:00,64.7,41.7,29.96,East,94,1.0,3.0,43,0.00,,,0.00,Wunderground v.1.15,2013-01-26 00:32:00,
2013-01-25 17:37:00,64.1,41.7,29.96,East,87,0.0,3.0,44,0.00,,,0.00,Wunderground v.1.15,2013-01-26 00:37:00,
2013-01-25 17:42:00,63.3,41.6,29.96,ESE,103,0.0,1.0,45,0.00,,,0.00,Wunderground v.1.15,2013-01-26 00:42:00,
2013-01-25 17:47:00,62.8,41.7,29.96,East,94,0.0,1.0,46,0.00,,,0.00,Wunderground v.1.15,2013-01-26 00:47:00,
2013-01-25 17:52:00,62.1,41.1,29.96,East,81,0.0,0.0,46,0.00,,,0.00,Wunderground v.1.15,2013-01-26 00:52:00,
2013-01-25 17:57:00,61.8,41.3,29.96,East,92,0.0,0.0,47,0.00,,,0.00,Wunderground v.1.15,2013-01-26 00:57:00,
2013-01-25 18:02:00,61.6,41.2,29.96,East,87,0.0,0.0,47,0.00,,,0.00,Wunderground v.1.15,2013-01-26 01:02:00,
2013-01-25 18:07:00,61.5,41.1,29.96,East,83,0.0,0.0,47,0.00,,,0.00,Wunderground v.1.15,2013-01-26 01:07:00,
2013-01-25 18:12:00,61.2,40.8,29.96,East,85,0.0,0.0,47,0.00,,,0.00,Wunderground v.1.15,2013-01-26 01:12:00,
2013-01-25 18:17:00,60.9,40.5,29.96,East,84,0.0,0.0,47,0.00,,,0.00,Wunderground v.1.15,2013-01-26 01:17:00,
2013-01-25 18:22:00,60.5,40.7,29.96,East,79,0.0,0.0,48,0.00,,,0.00,Wunderground v.1.15,2013-01-26 01:22:00,
2013-01-25 18:27:00,60.1,40.3,29.96,ENE,73,0.0,0.0,48,0.00,,,0.00,Wunderground v.1.15,2013-01-26 01:27:00,
2013-01-25 18:32:00,59.8,40.6,29.96,ENE,66,0.0,0.0,49,0.00,,,0.00,Wunderground v.1.15,2013-01-26 01:32:00,
2013-01-25 18:37:00,59.7,40.5,29.95,ENE,63,3.0,3.0,49,0.00,,,0.00,Wunderground v.1.15,2013-01-26 01:37:00,
2013-01-25 18:42:00,59.7,40.5,29.95,ENE,68,1.0,2.0,49,0.00,,,0.00,Wunderground v.1.15,2013-01-26 01:42:00,
2013-01-25 18:47:00,59.6,40.4,29.95,ENE,66,0.0,2.0,49,0.00,,,0.00,Wunderground v.1.15,2013-01-26 01:47:00,
2013-01-25 18:52:00,59.5,40.3,29.95,ENE,66,0.0,1.0,49,0.00,,,0.00,Wunderground v.1.15,2013-01-26 01:52:00,
2013-01-25 18:57:00,59.4,40.2,29.96,ENE,70,0.0,1.0,49,0.00,,,0.00,Wunderground v.1.15,2013-01-26 01:57:00,
2013-01-25 19:02:00,59.3,40.1,29.96,ENE,71,0.0,0.0,49,0.00,,,0.00,Wunderground v.1.15,2013-01-26 02:02:00,
2013-01-25 19:07:00,58.5,39.9,29.96,ENE,70,0.0,0.0,50,0.00,,,0.00,Wunderground v.1.15,2013-01-26 02:07:00,
2013-01-25 19:12:00,58.4,40.3,29.96,East,97,0.0,0.0,51,0.00,,,0.00,Wunderground v.1.15,2013-01-26 02:12:00,
2013-01-25 19:17:00,59.0,40.4,29.97,East,97,0.0,0.0,50,0.00,,,0.00,Wunderground v.1.15,2013-01-26 02:17:00,
2013-01-25 19:22:00,59.4,40.2,29.97,ESE,110,0.0,0.0,49,0.00,,,0.00,Wunderground v.1.15,2013-01-26 02:22:00,
2013-01-25 19:27:00,59.7,40.5,29.97,ESE,110,1.0,2.0,49,0.00,,,0.00,Wunderground v.1.15,2013-01-26 02:27:00,
2013-01-25 19:32:00,60.0,40.2,29.97,East,92,1.0,2.0,48,0.00,,,0.00,Wunderground v.1.15,2013-01-26 02:32:00,
2013-01-25 19:37:00,60.2,40.4,29.97,ESE,103,0.0,2.0,48,0.00,,,0.00,Wunderground v.1.15,2013-01-26 02:37:00,
2013-01-25 19:42:00,60.3,40.5,29.97,East,85,0.0,0.0,48,0.00,,,0.00,Wunderground v.1.15,2013-01-26 02:42:00,
2013-01-25 19:47:00,60.1,40.3,29.97,East,94,0.0,0.0,48,0.00,,,0.00,Wunderground v.1.15,2013-01-26 02:47:00,
2013-01-25 19:52:00,59.9,40.1,29.97,ESE,122,1.0,1.0,48,0.00,,,0.00,Wunderground v.1.15,2013-01-26 02:52:00,
2013-01-25 19:57:00,60.1,40.3,29.97,ESE,117,2.0,4.0,48,0.00,,,0.00,Wunderground v.1.15,2013-01-26 02:57:00,
2013-01-25 20:02:00,60.5,40.2,29.97,ENE,71,2.0,6.0,47,0.00,,,0.00,Wunderground v.1.15,2013-01-26 03:02:00,
2013-01-25 20:07:00,61.1,40.1,29.96,ESE,111,2.0,7.0,46,0.00,,,0.00,Wunderground v.1.15,2013-01-26 03:07:00,
2013-01-25 20:12:00,61.4,40.4,29.96,East,96,4.0,7.0,46,0.00,,,0.00,Wunderground v.1.15,2013-01-26 03:12:00,
2013-01-25 20:17:00,61.6,40.6,29.96,East,91,3.0,7.0,46,0.00,,,0.00,Wunderground v.1.15,2013-01-26 03:17:00,
2013-01-25 20:22:00,61.7,40.1,29.97,ESE,103,5.0,7.0,45,0.00,,,0.00,Wunderground v.1.15,2013-01-26 03:22:00,
2013-01-25 20:27:00,61.8,40.2,29.96,SE,131,3.0,7.0,45,0.00,,,0.00,Wunderground v.1.15,2013-01-26 03:27:00,
2013-01-25 20:32:00,61.8,40.2,29.96,ESE,111,4.0,5.0,45,0.00,,,0.00,Wunderground v.1.15,2013-01-26 03:32:00,
2013-01-25 20:37:00,61.8,40.2,29.96,East,97,3.0,6.0,45,0.00,,,0.00,Wunderground v.1.15,2013-01-26 03:37:00,
2013-01-25 20:42:00,61.8,40.2,29.96,ESE,105,3.0,6.0,45,0.00,,,0.00,Wunderground v.1.15,2013-01-26 03:42:00,
2013-01-25 20:47:00,61.8,40.2,29.96,East,90,7.0,7.0,45,0.00,,,0.00,Wunderground v.1.15,2013-01-26 03:47:00,
2013-01-25 20:52:00,62.0,40.4,29.96,East,96,6.0,8.0,45,0.00,,,0.00,Wunderground v.1.15,2013-01-26 03:52:00,
2013-01-25 20:57:00,62.0,40.4,29.96,SE,132,4.0,8.0,45,0.00,,,0.00,Wunderground v.1.15,2013-01-26 03:57:00,
2013-01-25 21:02:00,62.0,40.4,29.96,East,98,3.0,9.0,45,0.00,,,0.00,Wunderground v.1.15,2013-01-26 04:02:00,
2013-01-25 21:07:00,62.0,40.4,29.96,ESE,121,4.0,9.0,45,0.00,,,0.00,Wunderground v.1.15,2013-01-26 04:07:00,
2013-01-25 21:12:00,62.1,40.5,29.96,ESE,122,4.0,6.0,45,0.00,,,0.00,Wunderground v.1.15,2013-01-26 04:12:00,
2013-01-25 21:17:00,62.4,40.8,29.96,SE,135,6.0,11.0,45,0.00,,,0.00,Wunderground v.1.15,2013-01-26 04:17:00,
2013-01-25 21:22:00,62.6,40.4,29.96,SE,124,7.0,9.0,44,0.00,,,0.00,Wunderground v.1.15,2013-01-26 04:22:00,
2013-01-25 21:27:00,62.4,40.8,29.97,SE,140,6.0,10.0,45,0.00,,,0.00,Wunderground v.1.15,2013-01-26 04:27:00,
2013-01-25 21:32:00,62.1,40.5,29.97,SE,138,4.0,7.0,45,0.00,,,0.00,Wunderground v.1.15,2013-01-26 04:32:00,
2013-01-25 21:37:00,61.9,40.3,29.96,SE,124,3.0,7.0,45,0.00,,,0.00,Wunderground v.1.15,2013-01-26 04:37:00,
2013-01-25 21:42:00,61.6,40.6,29.96,SE,141,4.0,9.0,46,0.00,,,0.00,Wunderground v.1.15,2013-01-26 04:42:00,
2013-01-25 21:47:00,61.4,41.0,29.97,ESE,114,4.0,9.0,47,0.00,,,0.00,Wunderground v.1.15,2013-01-26 04:47:00,
2013-01-25 21:52:00,61.5,41.1,29.97,SE,139,3.0,9.0,47,0.00,,,0.00,Wunderground v.1.15,2013-01-26 04:52:00,
2013-01-25 21:57:00,61.5,41.1,29.97,SE,144,3.0,9.0,47,0.00,,,0.00,Wunderground v.1.15,2013-01-26 04:57:00,
2013-01-25 22:00:00,61.4,41.0,29.98,SE,145,5.0,5.0,47,0.00,,,0.00,Wunderground v.1.15,2013-01-26 05:00:00,
2013-01-25 22:03:00,61.3,40.9,29.98,South,176,8.0,8.0,47,0.00,,,0.00,Wunderground v.1.15,2013-01-26 05:03:00,
2013-01-25 22:08:00,61.4,41.5,29.98,SSE,160,11.0,14.0,48,0.00,,,0.00,Wunderground v.1.15,2013-01-26 05:08:00,
2013-01-25 22:14:00,60.6,44.8,29.98,SSW,207,16.0,22.0,56,0.00,,,0.00,Wunderground v.1.15,2013-01-26 05:14:00,
2013-01-25 22:19:00,59.8,45.4,29.98,South,173,15.0,22.0,59,0.00,,,0.00,Wunderground v.1.15,2013-01-26 05:19:00,
2013-01-25 22:24:00,59.3,45.8,29.98,SSW,198,10.0,17.0,61,0.00,,,0.00,Wunderground v.1.15,2013-01-26 05:24:00,
2013-01-25 22:29:00,58.9,45.9,29.98,SSE,150,10.0,19.0,62,0.00,,,0.00,Wunderground v.1.15,2013-01-26 05:29:00,
2013-01-25 22:34:00,58.6,46.5,29.98,SE,130,11.0,17.0,64,0.00,,,0.00,Wunderground v.1.15,2013-01-26 05:34:00,
2013-01-25 22:39:00,58.3,47.0,29.98,SSE,150,10.0,18.0,66,0.00,,,0.00,Wunderground v.1.15,2013-01-26 05:39:00,
2013-01-25 22:44:00,58.0,47.1,29.97,SE,145,10.0,18.0,67,0.00,,,0.00,Wunderground v.1.15,2013-01-26 05:44:00,
2013-01-25 22:49:00,57.9,47.0,29.97,SSE,163,9.0,18.0,67,0.00,,,0.00,Wunderground v.1.15,2013-01-26 05:49:00,
2013-01-25 22:54:00,57.8,47.3,29.97,SSE,155,17.0,20.0,68,0.00,,,0.00,Wunderground v.1.15,2013-01-26 05:54:00,
2013-01-25 22:59:00,57.7,47.2,29.97,South,187,13.0,20.0,68,0.00,,,0.00,Wunderground v.1.15,2013-01-26 05:59:00,
2013-01-25 23:04:00,57.6,47.1,29.97,South,173,13.0,18.0,68,0.00,,,0.00,Wunderground v.1.15,2013-01-26 06:04:00,
2013-01-25 23:09:00,57.5,47.4,29.97,SSE,155,12.0,18.0,69,0.00,,,0.00,Wunderground v.1.15,2013-01-26 06:09:00,
2013-01-25 23:14:00,57.2,47.5,29.97,SSE,150,6.0,16.0,70,0.00,,,0.00,Wunderground v.1.15,2013-01-26 06:14:00,
2013-01-25 23:19:00,57.2,47.5,29.97,ESE,121,10.0,16.0,70,0.00,,,0.00,Wunderground v.1.15,2013-01-26 06:19:00,
2013-01-25 23:24:00,57.0,47.7,29.97,ESE,113,6.0,16.0,71,0.00,,,0.00,Wunderground v.1.15,2013-01-26 06:24:00,
2013-01-25 23:29:00,56.8,47.9,29.97,SE,124,5.0,16.0,72,0.00,,,0.00,Wunderground v.1.15,2013-01-26 06:29:00,
2013-01-25 23:34:00,56.7,47.8,29.96,SE,135,6.0,10.0,72,0.00,,,0.00,Wunderground v.1.15,2013-01-26 06:34:00,
2013-01-25 23:39:00,56.5,47.9,29.96,SE,135,6.0,10.0,73,0.00,,,0.00,Wunderground v.1.15,2013-01-26 06:39:00,
2013-01-25 23:44:00,56.1,48.3,29.96,ESE,121,7.0,11.0,75,0.00,,,0.00,Wunderground v.1.15,2013-01-26 06:44:00,
2013-01-25 23:49:00,55.8,48.3,29.95,ESE,104,8.0,11.0,76,0.00,,,0.00,Wunderground v.1.15,2013-01-26 06:49:00,
2013-01-25 23:54:00,55.5,48.4,29.94,East,89,5.0,6.0,77,0.00,,,0.00,Wunderground v.1.15,2013-01-26 06:54:00,
2013-01-25 23:59:00,55.5,48.1,29.94,ENE,75,4.0,7.0,76,0.00,,,0.00,Wunderground v.1.15,2013-01-26 06:59:00,